sensor_id;sensor_type;location;lat;lon;timestamp;temperature;humidity
73277;DHT22;61501;43.316;5.372;2023-02-01T00:00:19;7.60;67.00
73277;DHT22;61501;43.316;5.372;2023-02-01T00:02:45;7.60;67.10
73277;DHT22;61501;43.316;5.372;2023-02-01T00:05:11;7.50;67.10
73277;DHT22;61501;43.316;5.372;2023-02-01T00:07:37;7.30;68.30
73277;DHT22;61501;43.316;5.372;2023-02-01T00:10:04;7.20;69.20
73277;DHT22;61501;43.316;5.372;2023-02-01T00:12:31;7.10;69.70
73277;DHT22;61501;43.316;5.372;2023-02-01T00:14:57;7.10;70.10
73277;DHT22;61501;43.316;5.372;2023-02-01T00:17:23;7.10;70.90
73277;DHT22;61501;43.316;5.372;2023-02-01T00:19:48;7.10;71.00
73277;DHT22;61501;43.316;5.372;2023-02-01T00:22:14;7.00;72.10
73277;DHT22;61501;43.316;5.372;2023-02-01T00:24:40;7.10;86.00
73277;DHT22;61501;43.316;5.372;2023-02-01T00:27:06;7.20;97.10
73277;DHT22;61501;43.316;5.372;2023-02-01T00:29:31;7.10;97.30
73277;DHT22;61501;43.316;5.372;2023-02-01T00:31:57;7.20;97.20
73277;DHT22;61501;43.316;5.372;2023-02-01T00:34:22;7.20;97.00
73277;DHT22;61501;43.316;5.372;2023-02-01T00:36:48;7.20;97.10
73277;DHT22;61501;43.316;5.372;2023-02-01T00:39:14;7.30;97.20
73277;DHT22;61501;43.316;5.372;2023-02-01T00:41:40;7.30;97.00
73277;DHT22;61501;43.316;5.372;2023-02-01T00:44:06;7.30;97.20
73277;DHT22;61501;43.316;5.372;2023-02-01T00:46:32;7.30;97.40
73277;DHT22;61501;43.316;5.372;2023-02-01T00:48:57;7.20;97.60
73277;DHT22;61501;43.316;5.372;2023-02-01T00:51:26;7.20;97.90
73277;DHT22;61501;43.316;5.372;2023-02-01T00:53:52;7.20;97.90
73277;DHT22;61501;43.316;5.372;2023-02-01T00:56:18;7.20;98.10
73277;DHT22;61501;43.316;5.372;2023-02-01T00:58:44;7.20;98.00
73277;DHT22;61501;43.316;5.372;2023-02-01T01:01:19;7.10;98.20
73277;DHT22;61501;43.316;5.372;2023-02-01T01:03:56;7.10;98.30
73277;DHT22;61501;43.316;5.372;2023-02-01T01:06:30;7.20;98.30
73277;DHT22;61501;43.316;5.372;2023-02-01T01:08:59;7.20;98.50
73277;DHT22;61501;43.316;5.372;2023-02-01T01:11:30;7.20;98.60
73277;DHT22;61501;43.316;5.372;2023-02-01T01:13:57;7.20;98.60
73277;DHT22;61501;43.316;5.372;2023-02-01T01:16:25;7.20;98.90
73277;DHT22;61501;43.316;5.372;2023-02-01T01:18:51;7.20;98.90
73277;DHT22;61501;43.316;5.372;2023-02-01T01:21:17;7.20;98.80
73277;DHT22;61501;43.316;5.372;2023-02-01T01:23:44;7.20;99.00
73277;DHT22;61501;43.316;5.372;2023-02-01T01:26:18;7.10;99.10
73277;DHT22;61501;43.316;5.372;2023-02-01T01:28:44;7.10;99.30
73277;DHT22;61501;43.316;5.372;2023-02-01T01:31:11;7.10;99.30
73277;DHT22;61501;43.316;5.372;2023-02-01T01:33:37;7.10;99.50
73277;DHT22;61501;43.316;5.372;2023-02-01T01:36:07;7.00;99.60
73277;DHT22;61501;43.316;5.372;2023-02-01T01:38:33;7.00;99.70
73277;DHT22;61501;43.316;5.372;2023-02-01T01:40:58;7.00;99.70
73277;DHT22;61501;43.316;5.372;2023-02-01T01:43:24;7.00;99.60
73277;DHT22;61501;43.316;5.372;2023-02-01T01:45:50;7.00;99.70
73277;DHT22;61501;43.316;5.372;2023-02-01T01:48:24;7.00;99.70
73277;DHT22;61501;43.316;5.372;2023-02-01T01:51:11;6.90;99.70
73277;DHT22;61501;43.316;5.372;2023-02-01T01:53:47;7.00;99.90
73277;DHT22;61501;43.316;5.372;2023-02-01T01:56:14;6.90;99.90
73277;DHT22;61501;43.316;5.372;2023-02-01T01:58:40;6.90;99.90
73277;DHT22;61501;43.316;5.372;2023-02-01T02:01:06;6.90;99.90
73277;DHT22;61501;43.316;5.372;2023-02-01T02:03:35;7.00;99.90
73277;DHT22;61501;43.316;5.372;2023-02-01T02:06:04;7.00;99.90
73277;DHT22;61501;43.316;5.372;2023-02-01T02:08:33;7.00;99.80
73277;DHT22;61501;43.316;5.372;2023-02-01T02:10:59;7.00;99.80
73277;DHT22;61501;43.316;5.372;2023-02-01T02:13:26;7.00;99.80
73277;DHT22;61501;43.316;5.372;2023-02-01T02:33:42;7.10;99.90
73277;DHT22;61501;43.316;5.372;2023-02-01T02:36:36;7.10;99.90
73277;DHT22;61501;43.316;5.372;2023-02-01T02:39:07;7.10;99.90
73277;DHT22;61501;43.316;5.372;2023-02-01T02:41:42;7.10;99.90
73277;DHT22;61501;43.316;5.372;2023-02-01T02:44:36;7.10;99.90
73277;DHT22;61501;43.316;5.372;2023-02-01T02:47:37;7.10;99.90
73277;DHT22;61501;43.316;5.372;2023-02-01T02:50:20;7.10;99.90
73277;DHT22;61501;43.316;5.372;2023-02-01T02:53:21;7.10;99.90
73277;DHT22;61501;43.316;5.372;2023-02-01T02:56:08;7.10;99.90
73277;DHT22;61501;43.316;5.372;2023-02-01T02:58:54;7.10;99.90
73277;DHT22;61501;43.316;5.372;2023-02-01T03:01:39;7.10;99.90
73277;DHT22;61501;43.316;5.372;2023-02-01T03:04:24;7.10;99.90
73277;DHT22;61501;43.316;5.372;2023-02-01T03:06:52;7.00;99.90
73277;DHT22;61501;43.316;5.372;2023-02-01T03:09:26;7.00;99.90
73277;DHT22;61501;43.316;5.372;2023-02-01T03:11:55;7.00;99.90
73277;DHT22;61501;43.316;5.372;2023-02-01T03:14:43;7.00;99.90
73277;DHT22;61501;43.316;5.372;2023-02-01T03:17:14;6.90;99.90
73277;DHT22;61501;43.316;5.372;2023-02-01T03:19:43;6.90;99.90
73277;DHT22;61501;43.316;5.372;2023-02-01T03:22:22;7.00;99.90
73277;DHT22;61501;43.316;5.372;2023-02-01T03:24:59;6.90;99.90
73277;DHT22;61501;43.316;5.372;2023-02-01T03:27:32;6.90;99.90
73277;DHT22;61501;43.316;5.372;2023-02-01T03:30:04;6.90;99.90
73277;DHT22;61501;43.316;5.372;2023-02-01T03:32:47;6.90;99.90
73277;DHT22;61501;43.316;5.372;2023-02-01T03:38:37;7.00;99.90
73277;DHT22;61501;43.316;5.372;2023-02-01T03:43:47;7.10;99.90
73277;DHT22;61501;43.316;5.372;2023-02-01T03:46:27;7.10;99.90
73277;DHT22;61501;43.316;5.372;2023-02-01T03:49:00;7.20;99.90
73277;DHT22;61501;43.316;5.372;2023-02-01T03:51:26;7.20;99.90
73277;DHT22;61501;43.316;5.372;2023-02-01T03:53:53;7.20;99.90
73277;DHT22;61501;43.316;5.372;2023-02-01T03:56:21;7.20;99.90
73277;DHT22;61501;43.316;5.372;2023-02-01T03:58:48;7.20;99.90
73277;DHT22;61501;43.316;5.372;2023-02-01T04:01:25;7.30;99.90
73277;DHT22;61501;43.316;5.372;2023-02-01T04:03:51;7.30;99.90
73277;DHT22;61501;43.316;5.372;2023-02-01T04:06:17;7.30;99.90
73277;DHT22;61501;43.316;5.372;2023-02-01T04:08:43;7.30;99.90
73277;DHT22;61501;43.316;5.372;2023-02-01T04:11:08;7.20;99.90
73277;DHT22;61501;43.316;5.372;2023-02-01T04:13:34;7.20;99.90
73277;DHT22;61501;43.316;5.372;2023-02-01T04:16:00;7.20;99.90
73277;DHT22;61501;43.316;5.372;2023-02-01T04:18:26;7.20;99.90
73277;DHT22;61501;43.316;5.372;2023-02-01T04:20:51;7.10;99.90
73277;DHT22;61501;43.316;5.372;2023-02-01T04:23:17;7.10;99.90
73277;DHT22;61501;43.316;5.372;2023-02-01T04:25:43;7.10;99.90
73277;DHT22;61501;43.316;5.372;2023-02-01T04:28:08;7.10;99.90
73277;DHT22;61501;43.316;5.372;2023-02-01T04:30:34;7.10;99.90
73277;DHT22;61501;43.316;5.372;2023-02-01T04:33:00;7.10;99.90
73277;DHT22;61501;43.316;5.372;2023-02-01T04:35:28;7.10;99.90
73277;DHT22;61501;43.316;5.372;2023-02-01T04:37:54;7.10;99.90
73277;DHT22;61501;43.316;5.372;2023-02-01T04:40:20;7.10;99.90
73277;DHT22;61501;43.316;5.372;2023-02-01T04:42:45;7.10;99.90
73277;DHT22;61501;43.316;5.372;2023-02-01T04:45:11;7.10;99.90
73277;DHT22;61501;43.316;5.372;2023-02-01T04:47:36;7.10;99.90
73277;DHT22;61501;43.316;5.372;2023-02-01T04:50:02;7.10;99.90
73277;DHT22;61501;43.316;5.372;2023-02-01T04:52:28;7.10;99.90
73277;DHT22;61501;43.316;5.372;2023-02-01T04:54:54;7.10;99.90
73277;DHT22;61501;43.316;5.372;2023-02-01T04:57:23;7.10;99.90
73277;DHT22;61501;43.316;5.372;2023-02-01T04:59:48;7.10;99.90
73277;DHT22;61501;43.316;5.372;2023-02-01T05:02:15;7.10;99.90
73277;DHT22;61501;43.316;5.372;2023-02-01T05:04:41;7.20;99.90
73277;DHT22;61501;43.316;5.372;2023-02-01T05:07:06;7.10;99.90
73277;DHT22;61501;43.316;5.372;2023-02-01T05:09:32;7.10;99.90
73277;DHT22;61501;43.316;5.372;2023-02-01T05:11:57;7.10;99.90
73277;DHT22;61501;43.316;5.372;2023-02-01T05:14:42;7.10;99.90
73277;DHT22;61501;43.316;5.372;2023-02-01T05:17:07;7.10;99.90
73277;DHT22;61501;43.316;5.372;2023-02-01T05:19:33;7.10;99.90
73277;DHT22;61501;43.316;5.372;2023-02-01T05:21:59;7.00;99.90
73277;DHT22;61501;43.316;5.372;2023-02-01T05:24:24;7.00;99.90
73277;DHT22;61501;43.316;5.372;2023-02-01T05:26:52;7.00;99.90
73277;DHT22;61501;43.316;5.372;2023-02-01T05:29:18;7.00;99.90
73277;DHT22;61501;43.316;5.372;2023-02-01T05:31:47;7.00;99.90
73277;DHT22;61501;43.316;5.372;2023-02-01T05:34:13;7.00;99.90
73277;DHT22;61501;43.316;5.372;2023-02-01T05:36:39;7.00;99.90
73277;DHT22;61501;43.316;5.372;2023-02-01T05:39:05;6.90;99.90
73277;DHT22;61501;43.316;5.372;2023-02-01T05:41:31;6.90;99.90
73277;DHT22;61501;43.316;5.372;2023-02-01T05:43:57;6.90;99.90
73277;DHT22;61501;43.316;5.372;2023-02-01T05:46:22;6.90;99.90
73277;DHT22;61501;43.316;5.372;2023-02-01T05:48:48;6.90;99.90
73277;DHT22;61501;43.316;5.372;2023-02-01T05:51:14;6.90;99.90
73277;DHT22;61501;43.316;5.372;2023-02-01T05:53:39;6.90;99.90
73277;DHT22;61501;43.316;5.372;2023-02-01T05:56:06;6.90;99.90
73277;DHT22;61501;43.316;5.372;2023-02-01T05:58:31;6.80;99.90
73277;DHT22;61501;43.316;5.372;2023-02-01T06:01:01;6.90;99.90
73277;DHT22;61501;43.316;5.372;2023-02-01T06:03:27;6.90;99.90
73277;DHT22;61501;43.316;5.372;2023-02-01T06:05:53;6.90;99.90
73277;DHT22;61501;43.316;5.372;2023-02-01T06:08:19;6.90;99.90
73277;DHT22;61501;43.316;5.372;2023-02-01T06:10:44;6.90;99.90
73277;DHT22;61501;43.316;5.372;2023-02-01T06:13:10;7.00;99.90
73277;DHT22;61501;43.316;5.372;2023-02-01T06:15:36;7.00;99.90
73277;DHT22;61501;43.316;5.372;2023-02-01T06:18:03;7.00;99.90
73277;DHT22;61501;43.316;5.372;2023-02-01T06:20:29;7.00;99.90
73277;DHT22;61501;43.316;5.372;2023-02-01T06:22:55;7.00;99.90
73277;DHT22;61501;43.316;5.372;2023-02-01T06:25:21;7.00;99.90
73277;DHT22;61501;43.316;5.372;2023-02-01T06:27:47;6.90;99.90
73277;DHT22;61501;43.316;5.372;2023-02-01T06:33:34;6.90;99.90
73277;DHT22;61501;43.316;5.372;2023-02-01T06:36:01;7.00;99.90
73277;DHT22;61501;43.316;5.372;2023-02-01T06:38:27;7.00;99.90
73277;DHT22;61501;43.316;5.372;2023-02-01T06:40:54;7.10;99.90
73277;DHT22;61501;43.316;5.372;2023-02-01T06:43:21;7.10;99.90
73277;DHT22;61501;43.316;5.372;2023-02-01T06:45:47;7.20;99.90
73277;DHT22;61501;43.316;5.372;2023-02-01T06:48:13;7.20;99.90
73277;DHT22;61501;43.316;5.372;2023-02-01T06:50:38;7.20;99.90
73277;DHT22;61501;43.316;5.372;2023-02-01T06:53:04;7.30;99.90
73277;DHT22;61501;43.316;5.372;2023-02-01T06:55:29;7.20;99.90
73277;DHT22;61501;43.316;5.372;2023-02-01T06:57:56;7.20;99.90
73277;DHT22;61501;43.316;5.372;2023-02-01T07:00:24;7.20;99.90
73277;DHT22;61501;43.316;5.372;2023-02-01T07:02:50;7.20;99.90
73277;DHT22;61501;43.316;5.372;2023-02-01T07:05:16;7.40;99.90
73277;DHT22;61501;43.316;5.372;2023-02-01T07:07:42;7.50;99.90
73277;DHT22;61501;43.316;5.372;2023-02-01T07:10:08;7.50;99.90
73277;DHT22;61501;43.316;5.372;2023-02-01T07:12:34;7.60;99.90
73277;DHT22;61501;43.316;5.372;2023-02-01T07:15:01;7.70;99.90
73277;DHT22;61501;43.316;5.372;2023-02-01T07:17:28;7.70;99.90
73277;DHT22;61501;43.316;5.372;2023-02-01T07:19:55;7.70;99.90
73277;DHT22;61501;43.316;5.372;2023-02-01T07:22:20;7.70;99.90
73277;DHT22;61501;43.316;5.372;2023-02-01T07:24:46;7.70;99.90
73277;DHT22;61501;43.316;5.372;2023-02-01T07:27:12;7.80;99.90
73277;DHT22;61501;43.316;5.372;2023-02-01T07:29:38;7.90;99.90
73277;DHT22;61501;43.316;5.372;2023-02-01T07:32:04;7.90;99.90
73277;DHT22;61501;43.316;5.372;2023-02-01T07:34:29;7.90;99.90
73277;DHT22;61501;43.316;5.372;2023-02-01T07:36:59;8.00;99.90
73277;DHT22;61501;43.316;5.372;2023-02-01T07:39:24;8.00;99.90
73277;DHT22;61501;43.316;5.372;2023-02-01T07:41:53;8.10;99.90
73277;DHT22;61501;43.316;5.372;2023-02-01T07:44:19;8.10;99.90
73277;DHT22;61501;43.316;5.372;2023-02-01T07:46:48;8.00;99.90
73277;DHT22;61501;43.316;5.372;2023-02-01T07:49:14;8.10;99.90
73277;DHT22;61501;43.316;5.372;2023-02-01T07:51:39;8.10;99.90
73277;DHT22;61501;43.316;5.372;2023-02-01T07:54:05;8.20;99.90
73277;DHT22;61501;43.316;5.372;2023-02-01T07:56:31;8.10;99.90
73277;DHT22;61501;43.316;5.372;2023-02-01T07:58:56;8.20;99.90
73277;DHT22;61501;43.316;5.372;2023-02-01T08:01:26;8.20;99.90
73277;DHT22;61501;43.316;5.372;2023-02-01T08:06:18;8.30;99.90
73277;DHT22;61501;43.316;5.372;2023-02-01T08:08:51;8.30;99.90
73277;DHT22;61501;43.316;5.372;2023-02-01T08:11:18;8.30;99.90
73277;DHT22;61501;43.316;5.372;2023-02-01T08:13:44;8.30;99.90
73277;DHT22;61501;43.316;5.372;2023-02-01T08:16:13;8.40;99.90
73277;DHT22;61501;43.316;5.372;2023-02-01T08:18:39;8.40;99.90
73277;DHT22;61501;43.316;5.372;2023-02-01T08:21:13;8.40;99.90
73277;DHT22;61501;43.316;5.372;2023-02-01T08:23:40;8.40;99.90
73277;DHT22;61501;43.316;5.372;2023-02-01T08:26:18;8.40;99.90
73277;DHT22;61501;43.316;5.372;2023-02-01T08:28:49;8.50;99.90
73277;DHT22;61501;43.316;5.372;2023-02-01T08:31:17;8.50;99.90
73277;DHT22;61501;43.316;5.372;2023-02-01T08:33:47;8.60;99.90
73277;DHT22;61501;43.316;5.372;2023-02-01T08:36:13;8.60;99.90
73277;DHT22;61501;43.316;5.372;2023-02-01T08:38:42;8.70;99.90
73277;DHT22;61501;43.316;5.372;2023-02-01T08:41:16;8.60;99.80
73277;DHT22;61501;43.316;5.372;2023-02-01T08:43:43;8.60;99.90
73277;DHT22;61501;43.316;5.372;2023-02-01T08:46:09;8.60;99.90
73277;DHT22;61501;43.316;5.372;2023-02-01T08:48:35;8.60;99.90
73277;DHT22;61501;43.316;5.372;2023-02-01T08:51:07;8.70;99.90
73277;DHT22;61501;43.316;5.372;2023-02-01T08:53:33;8.70;99.90
73277;DHT22;61501;43.316;5.372;2023-02-01T08:55:59;8.70;99.90
73277;DHT22;61501;43.316;5.372;2023-02-01T08:58:26;8.70;99.90
73277;DHT22;61501;43.316;5.372;2023-02-01T09:00:52;8.70;99.90
73277;DHT22;61501;43.316;5.372;2023-02-01T09:03:17;8.70;99.90
73277;DHT22;61501;43.316;5.372;2023-02-01T09:05:43;8.60;99.90
73277;DHT22;61501;43.316;5.372;2023-02-01T09:08:10;8.70;99.90
73277;DHT22;61501;43.316;5.372;2023-02-01T09:10:39;8.70;99.90
73277;DHT22;61501;43.316;5.372;2023-02-01T09:13:05;8.60;99.90
73277;DHT22;61501;43.316;5.372;2023-02-01T09:15:30;8.60;99.90
73277;DHT22;61501;43.316;5.372;2023-02-01T09:17:56;8.60;99.90
73277;DHT22;61501;43.316;5.372;2023-02-01T09:20:22;8.60;99.90
73277;DHT22;61501;43.316;5.372;2023-02-01T09:22:50;8.70;99.90
73277;DHT22;61501;43.316;5.372;2023-02-01T09:25:17;8.80;99.90
73277;DHT22;61501;43.316;5.372;2023-02-01T09:27:42;8.80;99.90
73277;DHT22;61501;43.316;5.372;2023-02-01T09:30:09;8.90;99.90
73277;DHT22;61501;43.316;5.372;2023-02-01T09:32:35;8.90;99.90
73277;DHT22;61501;43.316;5.372;2023-02-01T09:35:01;8.90;99.90
73277;DHT22;61501;43.316;5.372;2023-02-01T09:37:27;8.90;99.90
73277;DHT22;61501;43.316;5.372;2023-02-01T09:39:53;9.00;99.90
73277;DHT22;61501;43.316;5.372;2023-02-01T09:47:55;9.20;99.90
73277;DHT22;61501;43.316;5.372;2023-02-01T09:50:33;9.40;99.90
73277;DHT22;61501;43.316;5.372;2023-02-01T09:53:18;9.50;99.90
73277;DHT22;61501;43.316;5.372;2023-02-01T09:55:48;9.50;99.90
73277;DHT22;61501;43.316;5.372;2023-02-01T09:58:42;9.50;99.90
73277;DHT22;61501;43.316;5.372;2023-02-01T10:01:23;9.50;99.90
73277;DHT22;61501;43.316;5.372;2023-02-01T10:03:53;9.60;99.90
73277;DHT22;61501;43.316;5.372;2023-02-01T10:06:43;9.60;99.90
73277;DHT22;61501;43.316;5.372;2023-02-01T10:15:23;9.70;99.90
73277;DHT22;61501;43.316;5.372;2023-02-01T10:21:01;9.80;99.90
73277;DHT22;61501;43.316;5.372;2023-02-01T10:26:18;9.90;99.90
73277;DHT22;61501;43.316;5.372;2023-02-01T10:28:48;9.90;99.90
73277;DHT22;61501;43.316;5.372;2023-02-01T10:31:15;10.00;99.90
73277;DHT22;61501;43.316;5.372;2023-02-01T10:33:47;10.00;99.90
73277;DHT22;61501;43.316;5.372;2023-02-01T10:38:45;10.30;99.90
73277;DHT22;61501;43.316;5.372;2023-02-01T10:41:33;10.40;99.90
73277;DHT22;61501;43.316;5.372;2023-02-01T10:44:02;10.40;99.90
73277;DHT22;61501;43.316;5.372;2023-02-01T10:46:30;10.30;99.40
73277;DHT22;61501;43.316;5.372;2023-02-01T10:48:58;10.40;99.50
73277;DHT22;61501;43.316;5.372;2023-02-01T10:54:38;10.40;99.10
73277;DHT22;61501;43.316;5.372;2023-02-01T10:59:46;10.50;98.90
73277;DHT22;61501;43.316;5.372;2023-02-01T11:02:32;10.50;98.70
73277;DHT22;61501;43.316;5.372;2023-02-01T11:05:07;10.50;98.70
73277;DHT22;61501;43.316;5.372;2023-02-01T11:07:36;10.50;98.70
73277;DHT22;61501;43.316;5.372;2023-02-01T11:10:03;10.70;98.50
73277;DHT22;61501;43.316;5.372;2023-02-01T11:12:31;10.80;98.30
73277;DHT22;61501;43.316;5.372;2023-02-01T11:15:22;10.90;98.10
73277;DHT22;61501;43.316;5.372;2023-02-01T11:17:51;11.00;97.60
73277;DHT22;61501;43.316;5.372;2023-02-01T11:20:18;11.10;97.30
73277;DHT22;61501;43.316;5.372;2023-02-01T11:23:02;11.10;97.00
73277;DHT22;61501;43.316;5.372;2023-02-01T11:25:28;11.10;96.60
73277;DHT22;61501;43.316;5.372;2023-02-01T11:27:55;11.10;96.60
73277;DHT22;61501;43.316;5.372;2023-02-01T11:30:42;11.10;96.50
73277;DHT22;61501;43.316;5.372;2023-02-01T11:33:15;11.20;96.70
73277;DHT22;61501;43.316;5.372;2023-02-01T11:35:42;11.30;96.20
73277;DHT22;61501;43.316;5.372;2023-02-01T11:38:28;11.30;96.50
73277;DHT22;61501;43.316;5.372;2023-02-01T11:40:54;11.30;96.50
73277;DHT22;61501;43.316;5.372;2023-02-01T11:43:28;11.40;96.40
73277;DHT22;61501;43.316;5.372;2023-02-01T11:46:01;11.50;96.20
73277;DHT22;61501;43.316;5.372;2023-02-01T11:48:30;11.60;95.90
73277;DHT22;61501;43.316;5.372;2023-02-01T12:10:25;13.30;92.90
73277;DHT22;61501;43.316;5.372;2023-02-01T12:12:57;14.20;91.50
73277;DHT22;61501;43.316;5.372;2023-02-01T12:18:58;15.40;90.20
73277;DHT22;61501;43.316;5.372;2023-02-01T12:24:29;15.30;88.70
73277;DHT22;61501;43.316;5.372;2023-02-01T12:32:57;16.00;87.50
73277;DHT22;61501;43.316;5.372;2023-02-01T12:43:58;17.80;84.50
73277;DHT22;61501;43.316;5.372;2023-02-01T12:46:35;18.80;82.60
73277;DHT22;61501;43.316;5.372;2023-02-01T12:49:14;18.90;80.70
73277;DHT22;61501;43.316;5.372;2023-02-01T12:51:44;18.90;80.60
73277;DHT22;61501;43.316;5.372;2023-02-01T12:56:59;19.40;80.30
73277;DHT22;61501;43.316;5.372;2023-02-01T13:07:22;19.00;75.30
73277;DHT22;61501;43.316;5.372;2023-02-01T13:10:54;19.70;74.00
73277;DHT22;61501;43.316;5.372;2023-02-01T13:12:57;18.20;78.10
73277;DHT22;61501;43.316;5.372;2023-02-01T13:15:31;18.40;78.40
73277;DHT22;61501;43.316;5.372;2023-02-01T13:18:01;18.50;78.80
73277;DHT22;61501;43.316;5.372;2023-02-01T13:20:37;18.00;79.40
73277;DHT22;61501;43.316;5.372;2023-02-01T13:23:16;17.80;79.90
73277;DHT22;61501;43.316;5.372;2023-02-01T13:25:47;17.90;79.50
73277;DHT22;61501;43.316;5.372;2023-02-01T13:28:42;18.30;78.90
73277;DHT22;61501;43.316;5.372;2023-02-01T13:42:56;18.20;80.30
73277;DHT22;61501;43.316;5.372;2023-02-01T13:45:26;17.80;80.70
73277;DHT22;61501;43.316;5.372;2023-02-01T13:47:57;17.90;81.00
73277;DHT22;61501;43.316;5.372;2023-02-01T13:50:35;18.70;79.90
73277;DHT22;61501;43.316;5.372;2023-02-01T13:55:45;17.30;82.20
73277;DHT22;61501;43.316;5.372;2023-02-01T13:58:21;16.90;83.50
73277;DHT22;61501;43.316;5.372;2023-02-01T14:00:48;16.80;83.90
73277;DHT22;61501;43.316;5.372;2023-02-01T14:03:20;16.90;84.10
73277;DHT22;61501;43.316;5.372;2023-02-01T14:10:58;16.30;85.00
73277;DHT22;61501;43.316;5.372;2023-02-01T14:36:59;17.00;84.40
73277;DHT22;61501;43.316;5.372;2023-02-01T14:42:03;17.00;84.40
73277;DHT22;61501;43.316;5.372;2023-02-01T14:44:34;16.20;85.30
73277;DHT22;61501;43.316;5.372;2023-02-01T14:49:33;16.30;86.20
73277;DHT22;61501;43.316;5.372;2023-02-01T14:52:02;17.00;85.10
73277;DHT22;61501;43.316;5.372;2023-02-01T14:54:30;16.70;85.00
73277;DHT22;61501;43.316;5.372;2023-02-01T14:56:57;16.50;85.50
73277;DHT22;61501;43.316;5.372;2023-02-01T14:59:25;16.60;85.70
73277;DHT22;61501;43.316;5.372;2023-02-01T15:01:58;16.40;86.00
73277;DHT22;61501;43.316;5.372;2023-02-01T15:04:27;16.10;86.00
73277;DHT22;61501;43.316;5.372;2023-02-01T15:06:55;15.60;87.30
73277;DHT22;61501;43.316;5.372;2023-02-01T15:09:35;15.50;87.70
73277;DHT22;61501;43.316;5.372;2023-02-01T15:14:37;16.20;86.90
73277;DHT22;61501;43.316;5.372;2023-02-01T15:17:18;16.30;86.60
73277;DHT22;61501;43.316;5.372;2023-02-01T15:19:57;16.10;87.60
73277;DHT22;61501;43.316;5.372;2023-02-01T15:22:23;16.20;87.20
73277;DHT22;61501;43.316;5.372;2023-02-01T15:24:54;15.90;87.80
73277;DHT22;61501;43.316;5.372;2023-02-01T15:27:20;15.90;87.40
73277;DHT22;61501;43.316;5.372;2023-02-01T15:29:46;15.70;88.10
73277;DHT22;61501;43.316;5.372;2023-02-01T15:32:33;15.60;88.50
73277;DHT22;61501;43.316;5.372;2023-02-01T15:34:59;15.20;89.10
73277;DHT22;61501;43.316;5.372;2023-02-01T15:37:26;15.50;89.00
73277;DHT22;61501;43.316;5.372;2023-02-01T15:42:53;15.90;88.20
73277;DHT22;61501;43.316;5.372;2023-02-01T15:45:22;16.40;87.30
73277;DHT22;61501;43.316;5.372;2023-02-01T15:47:51;16.40;86.90
73277;DHT22;61501;43.316;5.372;2023-02-01T15:50:20;16.20;87.40
73277;DHT22;61501;43.316;5.372;2023-02-01T15:52:50;15.40;88.90
73277;DHT22;61501;43.316;5.372;2023-02-01T15:55:38;15.10;90.00
73277;DHT22;61501;43.316;5.372;2023-02-01T15:58:12;15.40;89.30
73277;DHT22;61501;43.316;5.372;2023-02-01T16:00:53;14.80;90.10
73277;DHT22;61501;43.316;5.372;2023-02-01T16:03:41;14.80;90.30
73277;DHT22;61501;43.316;5.372;2023-02-01T16:06:26;15.10;90.20
73277;DHT22;61501;43.316;5.372;2023-02-01T16:08:54;14.80;90.30
73277;DHT22;61501;43.316;5.372;2023-02-01T16:11:27;14.70;90.60
73277;DHT22;61501;43.316;5.372;2023-02-01T16:13:53;14.70;90.60
73277;DHT22;61501;43.316;5.372;2023-02-01T16:16:19;14.70;90.70
73277;DHT22;61501;43.316;5.372;2023-02-01T16:18:44;14.60;90.70
73277;DHT22;61501;43.316;5.372;2023-02-01T16:21:10;14.60;90.80
73277;DHT22;61501;43.316;5.372;2023-02-01T16:23:36;14.60;90.70
73277;DHT22;61501;43.316;5.372;2023-02-01T16:26:03;14.40;91.10
73277;DHT22;61501;43.316;5.372;2023-02-01T16:28:29;14.10;91.50
73277;DHT22;61501;43.316;5.372;2023-02-01T16:30:55;13.90;92.10
73277;DHT22;61501;43.316;5.372;2023-02-01T16:33:21;14.00;92.00
73277;DHT22;61501;43.316;5.372;2023-02-01T16:35:48;14.10;91.70
73277;DHT22;61501;43.316;5.372;2023-02-01T16:38:16;13.90;92.10
73277;DHT22;61501;43.316;5.372;2023-02-01T16:40:49;13.60;92.30
73277;DHT22;61501;43.316;5.372;2023-02-01T16:43:24;13.20;92.90
73277;DHT22;61501;43.316;5.372;2023-02-01T16:45:53;13.20;93.40
73277;DHT22;61501;43.316;5.372;2023-02-01T16:48:27;12.80;93.20
73277;DHT22;61501;43.316;5.372;2023-02-01T16:50:58;12.50;93.70
73277;DHT22;61501;43.316;5.372;2023-02-01T16:53:27;12.30;94.20
73277;DHT22;61501;43.316;5.372;2023-02-01T16:55:53;12.10;94.40
73277;DHT22;61501;43.316;5.372;2023-02-01T16:58:20;12.00;94.60
73277;DHT22;61501;43.316;5.372;2023-02-01T17:00:47;12.00;94.90
73277;DHT22;61501;43.316;5.372;2023-02-01T17:03:13;12.00;94.90
73277;DHT22;61501;43.316;5.372;2023-02-01T17:05:50;11.80;95.00
73277;DHT22;61501;43.316;5.372;2023-02-01T17:08:22;11.90;95.10
73277;DHT22;61501;43.316;5.372;2023-02-01T17:10:50;11.80;95.10
73277;DHT22;61501;43.316;5.372;2023-02-01T17:13:16;11.60;95.20
73277;DHT22;61501;43.316;5.372;2023-02-01T17:16:03;11.60;95.40
73277;DHT22;61501;43.316;5.372;2023-02-01T17:18:32;11.60;95.40
73277;DHT22;61501;43.316;5.372;2023-02-01T17:20:59;11.50;95.50
73277;DHT22;61501;43.316;5.372;2023-02-01T17:23:26;11.50;95.50
73277;DHT22;61501;43.316;5.372;2023-02-01T17:25:53;11.50;95.60
73277;DHT22;61501;43.316;5.372;2023-02-01T17:28:19;11.50;95.60
73277;DHT22;61501;43.316;5.372;2023-02-01T17:30:45;11.50;95.70
73277;DHT22;61501;43.316;5.372;2023-02-01T17:33:24;11.40;95.80
73277;DHT22;61501;43.316;5.372;2023-02-01T17:35:50;11.40;95.80
73277;DHT22;61501;43.316;5.372;2023-02-01T17:38:18;11.40;95.90
73277;DHT22;61501;43.316;5.372;2023-02-01T17:40:43;11.30;95.90
73277;DHT22;61501;43.316;5.372;2023-02-01T17:43:22;11.30;95.70
73277;DHT22;61501;43.316;5.372;2023-02-01T17:48:20;11.30;95.70
73277;DHT22;61501;43.316;5.372;2023-02-01T17:50:49;11.30;95.80
73277;DHT22;61501;43.316;5.372;2023-02-01T17:53:19;11.30;95.60
73277;DHT22;61501;43.316;5.372;2023-02-01T17:55:49;11.30;95.60
73277;DHT22;61501;43.316;5.372;2023-02-01T17:58:16;11.20;95.40
73277;DHT22;61501;43.316;5.372;2023-02-01T18:00:43;11.20;95.40
73277;DHT22;61501;43.316;5.372;2023-02-01T18:03:22;11.10;95.50
73277;DHT22;61501;43.316;5.372;2023-02-01T18:05:48;11.10;95.70
73277;DHT22;61501;43.316;5.372;2023-02-01T18:08:17;11.10;96.00
73277;DHT22;61501;43.316;5.372;2023-02-01T18:10:48;11.10;96.00
73277;DHT22;61501;43.316;5.372;2023-02-01T18:13:14;11.00;96.20
73277;DHT22;61501;43.316;5.372;2023-02-01T18:15:42;11.00;96.20
73277;DHT22;61501;43.316;5.372;2023-02-01T18:18:08;10.90;96.40
73277;DHT22;61501;43.316;5.372;2023-02-01T18:20:34;10.90;96.50
73277;DHT22;61501;43.316;5.372;2023-02-01T18:23:00;10.80;96.50
73277;DHT22;61501;43.316;5.372;2023-02-01T18:25:30;10.80;96.60
73277;DHT22;61501;43.316;5.372;2023-02-01T18:28:10;10.80;96.80
73277;DHT22;61501;43.316;5.372;2023-02-01T18:30:38;10.70;96.90
73277;DHT22;61501;43.316;5.372;2023-02-01T18:33:04;10.80;96.90
73277;DHT22;61501;43.316;5.372;2023-02-01T18:35:30;10.70;97.00
73277;DHT22;61501;43.316;5.372;2023-02-01T18:37:57;10.70;97.20